Time;durP1;ratioP1;P1;durP2;ratioP2;P2;SDS_P1;SDS_P2;PMS_P1;PMS_P2;Temp;Humidity;BMP_temperature;BMP_pressure;BME280_temperature;BME280_humidity;BME280_pressure;Samples;Min_cycle;Max_cycle;Signal;HPM_P1;HPM_P2
2022/08/11 00:01:27;;;;;;;2.88;1.77;;;;;;;20.04;49.99;102111.78;5157792;27;20043;-75
2022/08/11 00:04:01;;;;;;;;;;;;;;;19.99;49.97;102115.53;5158091;27;20039;-75
2022/08/11 00:06:35;;;;;;;2.33;1.47;;;;;;;19.95;50.26;102108.59;5157795;27;19923;-75
2022/08/11 00:09:06;;;;;;;;;;;;;;;19.92;50.25;102110.56;5157679;27;20515;-75
2022/08/11 00:11:48;;;;;;;2.10;1.50;;;;;;;19.85;50.63;102109.94;5157762;27;19973;-75
2022/08/11 00:14:28;;;;;;;6.15;1.75;;;;;;;19.82;50.73;102107.44;5157527;27;20039;-75
2022/08/11 00:17:11;;;;;;;2.53;1.70;;;;;;;19.75;50.96;102097.97;5156176;27;20059;-75
2022/08/11 00:19:48;;;;;;;7.45;1.70;;;;;;;19.74;50.94;102102.47;5157186;27;20122;-75
2022/08/11 00:22:40;;;;;;;4.03;1.60;;;;;;;19.71;51.17;102107.97;5157266;27;20039;-75
2022/08/11 00:25:18;;;;;;;3.45;1.80;;;;;;;19.68;51.22;102105.47;5157098;27;20042;-75
2022/08/11 00:27:47;;;;;;;2.72;1.58;;;;;;;19.63;51.32;102107.47;5157024;27;20031;-75
2022/08/11 00:30:15;;;;;;;2.53;1.73;;;;;;;19.62;51.44;102103.94;5157147;27;20123;-75
2022/08/11 00:32:54;;;;;;;4.28;1.73;;;;;;;19.58;51.63;102102.34;5157088;27;20078;-75
2022/08/11 00:35:29;;;;;;;1.88;1.52;;;;;;;19.55;51.67;102108.72;5156951;27;20118;-75
2022/08/11 00:38:24;;;;;;;4.10;2.00;;;;;;;19.50;51.71;102105.38;5156428;27;20072;-75
2022/08/11 00:41:30;;;;;;;4.35;2.00;;;;;;;19.49;51.70;102106.31;5157094;27;20589;-75
2022/08/11 00:44:32;;;;;;;3.45;1.80;;;;;;;19.48;51.81;102109.97;5156774;27;20062;-75
2022/08/11 00:47:26;;;;;;;5.32;1.65;;;;;;;19.42;51.92;102115.59;5156285;27;20546;-75
2022/08/11 00:50:20;;;;;;;3.72;1.80;;;;;;;19.38;52.06;102106.84;5156585;27;20568;-75
2022/08/11 00:53:25;;;;;;;;;;;;;;;19.34;52.26;102115.94;5157444;27;20045;-75
2022/08/11 00:56:12;;;;;;;5.28;2.00;;;;;;;19.32;52.33;102115.19;5156390;27;19923;-75
2022/08/11 00:59:19;;;;;;;4.25;1.60;;;;;;;19.30;52.29;102111.69;5156412;27;20035;-75
2022/08/11 01:02:41;;;;;;;4.28;2.03;;;;;;;19.30;52.38;102102.78;5157064;27;20042;-75
2022/08/11 01:05:36;;;;;;;4.57;1.80;;;;;;;19.27;52.45;102106.50;5143096;27;20551;-75
2022/08/11 01:08:16;;;;;;;5.65;1.95;;;;;;;19.23;52.87;102108.44;5156490;27;20118;-75
2022/08/11 01:11:08;;;;;;;3.80;2.13;;;;;;;19.21;52.73;102102.28;5156063;27;20047;-75
2022/08/11 01:14:15;;;;;;;5.93;1.73;;;;;;;19.18;52.68;102099.75;5154982;27;20047;-75
2022/08/11 01:17:51;;;;;;;3.13;1.80;;;;;;;19.17;52.77;102107.84;5155564;27;20055;-75
2022/08/11 01:21:22;;;;;;;6.07;1.90;;;;;;;19.13;52.74;102108.97;5156202;27;20039;-75
2022/08/11 01:24:26;;;;;;;3.45;2.15;;;;;;;19.11;53.12;102105.47;5128741;27;20055;-75
2022/08/11 01:27:48;;;;;;;4.70;1.80;;;;;;;19.07;53.13;102110.97;5155942;27;20119;-75
2022/08/11 01:31:00;;;;;;;3.03;1.70;;;;;;;19.05;53.33;102109.31;5145888;27;20256;-75
2022/08/11 01:34:01;;;;;;;3.25;1.90;;;;;;;19.02;53.41;102107.66;5155806;27;20152;-75
2022/08/11 01:36:47;;;;;;;2.63;1.60;;;;;;;18.99;53.44;102112.25;5155798;27;20043;-75
2022/08/11 01:39:34;;;;;;;4.18;1.70;;;;;;;18.98;53.71;102115.84;5156115;27;20035;-75
2022/08/11 01:45:59;;;;;;;2.70;1.73;;;;;;;18.91;53.65;102113.44;5155961;27;20519;-75
2022/08/11 01:48:55;;;;;;;3.55;1.92;;;;;;;18.87;53.92;102111.81;5155953;27;20038;-75
2022/08/11 01:52:03;;;;;;;3.85;2.22;;;;;;;18.83;53.87;102110.25;5155895;27;20078;-75
2022/08/11 01:54:40;;;;;;;3.65;1.83;;;;;;;18.77;54.15;102114.06;5155755;27;20031;-75
2022/08/11 01:57:37;;;;;;;7.40;2.10;;;;;;;18.72;54.20;102113.38;5156354;27;20082;-75
2022/08/11 02:00:17;;;;;;;4.03;2.10;;;;;;;18.68;54.36;102111.81;5155317;27;20062;-75
2022/08/11 02:02:52;;;;;;;4.55;2.22;;;;;;;18.63;54.51;102112.00;5155845;27;20122;-75
2022/08/11 02:05:28;;;;;;;5.00;2.30;;;;;;;18.62;54.65;102114.72;5155563;27;20116;-75
2022/08/11 02:08:27;;;;;;;3.92;2.03;;;;;;;18.57;54.72;102112.25;5155665;27;20043;-75
2022/08/11 02:11:30;;;;;;;4.05;2.00;;;;;;;18.52;54.90;102110.75;5155621;27;20047;-75
2022/08/11 02:14:21;;;;;;;4.30;2.20;;;;;;;18.47;54.99;102118.94;5155214;27;20039;-75
2022/08/11 02:17:12;;;;;;;3.58;2.00;;;;;;;18.43;55.17;102120.03;5154976;27;20138;-75
2022/08/11 02:26:19;;;;;;;;;;;;;;;18.30;55.37;102109.88;5159512;27;20486;-75
2022/08/11 02:29:14;;;;;;;6.10;2.10;;;;;;;18.27;55.67;102110.00;5158755;27;20307;-75
2022/08/11 02:35:41;;;;;;;3.67;2.17;;;;;;;18.18;55.91;102113.06;5158600;27;20085;-75
2022/08/11 02:38:42;;;;;;;3.25;1.80;;;;;;;18.13;56.15;102112.41;5158992;27;20043;-75
2022/08/11 02:44:33;;;;;;;5.22;2.30;;;;;;;18.06;56.31;102103.78;5158898;27;20461;-75
2022/08/11 02:47:37;;;;;;;2.60;2.00;;;;;;;18.04;56.18;102107.44;5158588;27;20118;-75
2022/08/11 02:50:34;;;;;;;5.28;2.05;;;;;;;18.05;56.51;102114.53;5158466;27;20071;-75
2022/08/11 02:53:15;;;;;;;5.50;2.25;;;;;;;17.99;56.54;102105.81;5158687;27;20172;-75
2022/08/11 02:56:12;;;;;;;4.32;2.20;;;;;;;17.97;56.74;102104.16;5158564;27;20088;-75
2022/08/11 03:02:02;;;;;;;4.10;2.10;;;;;;;17.85;57.27;102106.38;5158342;27;20514;-75
2022/08/11 03:04:58;;;;;;;4.57;2.28;;;;;;;17.83;57.46;102118.91;5158705;27;20118;-75
2022/08/11 03:08:06;;;;;;;5.30;2.60;;;;;;;17.76;57.45;102111.19;5158210;27;20031;-75
2022/08/11 03:17:40;;;;;;;3.70;2.13;;;;;;;17.65;58.00;102111.63;5073059;28;20111;-75
2022/08/11 03:20:37;;;;;;;5.53;2.22;;;;;;;17.64;58.21;102117.91;5133766;27;20125;-75
2022/08/11 03:23:48;;;;;;;4.20;2.45;;;;;;;17.63;58.26;102110.81;5136916;27;20505;-76
2022/08/11 03:26:41;;;;;;;3.95;2.30;;;;;;;17.63;58.36;102117.03;5137429;27;20043;-75
2022/08/11 03:29:34;;;;;;;3.10;2.42;;;;;;;17.63;58.44;102113.50;5137156;27;20040;-75
2022/08/11 03:32:18;;;;;;;8.05;2.45;;;;;;;17.61;58.56;102108.22;5137181;27;20170;-76
2022/08/11 03:34:49;;;;;;;6.50;2.83;;;;;;;17.58;58.66;102097.69;5136585;27;20040;-75
2022/08/11 03:37:50;;;;;;;5.82;2.40;;;;;;;17.56;58.82;102104.88;5136519;27;20149;-75
2022/08/11 03:43:59;;;;;;;3.38;2.40;;;;;;;17.56;59.06;102104.88;5136896;27;20044;-75
2022/08/11 03:47:00;;;;;;;4.38;2.42;;;;;;;17.51;59.13;102102.38;5136646;27;20039;-75
2022/08/11 03:50:28;;;;;;;4.75;2.70;;;;;;;17.44;59.23;102097.38;5136872;27;20039;-75
2022/08/11 03:53:52;;;;;;;4.50;2.70;;;;;;;17.38;59.15;102102.00;5106491;27;20054;-75
2022/08/11 03:57:04;;;;;;;9.20;2.70;;;;;;;17.35;59.52;102093.25;5136649;27;20119;-75
2022/08/11 04:00:26;;;;;;;8.88;2.60;;;;;;;17.31;59.67;102097.84;5136432;27;20097;-75
2022/08/11 04:03:35;;;;;;;6.65;2.58;;;;;;;17.26;59.68;102099.81;5130956;27;20043;-75
2022/08/11 04:06:28;;;;;;;4.43;2.85;;;;;;;17.26;60.00;102096.28;5136747;27;20089;-75
2022/08/11 04:09:24;;;;;;;8.73;2.70;;;;;;;17.25;60.10;102102.53;5136679;27;20042;-75
2022/08/11 04:12:33;;;;;;;7.85;2.75;;;;;;;17.23;60.21;102102.63;5136808;27;20449;-75
2022/08/11 04:16:01;;;;;;;3.50;2.92;;;;;;;17.23;60.12;102097.28;5136559;27;20069;-75
2022/08/11 04:19:16;;;;;;;6.03;2.95;;;;;;;17.23;60.35;102098.13;5136624;27;20500;-76
2022/08/11 04:22:08;;;;;;;;;;;;;;;17.25;60.50;102087.41;5136702;27;20120;-75
2022/08/11 04:24:57;;;;;;;6.28;3.10;;;;;;;17.27;60.66;102092.69;5136458;27;20021;-75
2022/08/11 04:27:51;;;;;;;6.30;2.88;;;;;;;17.30;60.64;102092.56;5136064;27;20040;-75
2022/08/11 04:31:01;;;;;;;5.53;2.80;;;;;;;17.32;60.34;102093.38;5136284;27;20063;-75
2022/08/11 04:34:34;;;;;;;4.55;2.90;;;;;;;17.33;60.41;102088.00;5136309;27;20128;-75
2022/08/11 04:37:39;;;;;;;4.57;3.00;;;;;;;17.33;60.42;102092.44;5136271;27;20454;-75
2022/08/11 04:40:49;;;;;;;7.82;3.10;;;;;;;17.37;60.44;102100.25;5136268;27;20047;-75
2022/08/11 04:43:55;;;;;;;5.97;3.10;;;;;;;17.43;60.51;102103.63;5136172;27;20045;-76
2022/08/11 04:47:09;;;;;;;5.13;3.40;;;;;;;17.53;60.09;102095.19;5136040;27;20207;-75
2022/08/11 05:03:11;;;;;;;4.13;3.25;;;;;;;17.59;60.25;102098.56;5112275;28;20086;-74
2022/08/11 05:06:23;;;;;;;5.88;3.10;;;;;;;17.65;60.33;102109.81;5134667;27;20523;-75
2022/08/11 05:09:46;;;;;;;6.63;3.30;;;;;;;17.70;60.21;102101.69;5135546;27;20044;-75
2022/08/11 05:12:48;;;;;;;5.68;2.72;;;;;;;17.74;60.13;102105.09;5135658;27;20063;-75
2022/08/11 05:36:44;;;;;;;5.82;2.72;;;;;;;20.73;53.97;102099.28;5155525;27;20539;-75
2022/08/11 05:56:59;;;;;;;5.13;2.72;;;;;;;27.99;34.73;102094.63;5155913;27;20049;-75
2022/08/11 05:59:28;;;;;;;4.78;2.50;;;;;;;25.67;38.53;102108.44;5157647;27;20255;-75
2022/08/11 06:02:06;;;;;;;4.60;2.70;;;;;;;23.72;42.46;102109.38;5158802;27;20565;-75
2022/08/11 06:04:34;;;;;;;5.13;2.78;;;;;;;22.55;45.42;102111.41;5159514;27;20078;-75
2022/08/11 06:07:08;;;;;;;3.95;3.00;;;;;;;21.83;47.10;102106.66;5159280;27;20043;-75
2022/08/11 06:09:49;;;;;;;4.05;2.85;;;;;;;21.36;48.68;102103.03;5159022;27;20492;-75
2022/08/11 06:12:31;;;;;;;5.95;3.35;;;;;;;21.02;49.55;102113.78;5159045;27;20039;-75
2022/08/11 06:15:10;;;;;;;3.40;2.85;;;;;;;20.80;50.25;102122.13;5159288;27;20055;-74
2022/08/11 06:17:47;;;;;;;6.80;2.97;;;;;;;20.62;51.14;102115.91;5158487;27;20124;-75
2022/08/11 06:20:18;;;;;;;6.78;3.42;;;;;;;20.54;51.48;102116.34;5159669;27;20078;-75
2022/08/11 06:22:56;;;;;;;5.68;2.92;;;;;;;20.51;51.58;102113.81;5159037;27;20445;-75
2022/08/11 06:25:31;;;;;;;4.90;2.90;;;;;;;20.53;51.64;102124.44;5158619;27;20502;-75
2022/08/11 06:28:02;;;;;;;6.40;2.80;;;;;;;20.54;51.63;102126.16;5158929;27;20107;-75
2022/08/11 06:30:44;;;;;;;4.10;2.53;;;;;;;20.58;51.61;102128.59;5159121;27;20061;-75
2022/08/11 06:33:18;;;;;;;3.40;2.72;;;;;;;20.70;51.33;102124.44;5159071;27;20496;-75
2022/08/11 06:36:08;;;;;;;4.97;2.92;;;;;;;20.76;50.83;102116.09;5158699;27;20100;-75
2022/08/11 06:39:22;;;;;;;5.40;2.70;;;;;;;20.87;50.54;102118.19;5158925;27;20126;-75
2022/08/11 06:42:10;;;;;;;4.93;2.58;;;;;;;20.97;50.50;102118.56;5158999;27;20041;-75
2022/08/11 06:44:59;;;;;;;4.50;2.67;;;;;;;21.07;49.84;102119.78;5157943;27;20043;-75
2022/08/11 06:47:27;;;;;;;4.60;2.42;;;;;;;21.23;49.21;102111.75;5158307;27;20106;-75
2022/08/11 06:52:46;;;;;;;4.85;2.47;;;;;;;21.38;49.14;102122.56;5158627;27;20071;-76
2022/08/11 07:01:45;;;;;;;4.93;2.38;;;;;;;21.83;47.71;102118.25;5158349;27;20045;-75
2022/08/11 07:04:53;;;;;;;6.03;2.53;;;;;;;21.96;47.14;102120.25;5158501;27;20130;-75
2022/08/11 07:17:30;;;;;;;4.72;2.50;;;;;;;22.55;45.67;102124.84;5157823;27;20063;-75
2022/08/11 07:28:54;;;;;;;4.63;2.10;;;;;;;23.00;44.07;102116.69;5158278;27;20491;-76
2022/08/11 07:31:40;;;;;;;6.03;2.25;;;;;;;23.13;43.78;102120.34;5157788;27;20039;-75
2022/08/11 07:34:23;;;;;;;7.80;2.22;;;;;;;23.26;43.15;102115.06;5158263;27;20081;-75
2022/08/11 07:37:01;;;;;;;4.60;2.20;;;;;;;23.35;43.56;102124.38;5158021;27;20593;-76
2022/08/11 07:39:34;;;;;;;5.45;2.30;;;;;;;23.48;43.44;102124.44;5157959;27;20120;-75
2022/08/11 07:42:10;;;;;;;;;;;;;;;23.55;43.87;102117.69;5158565;27;20040;-75
2022/08/11 07:53:02;;;;;;;5.38;2.08;;;;;;;24.12;41.11;102113.94;5157642;27;20039;-75
2022/08/11 07:55:31;;;;;;;4.72;2.10;;;;;;;24.13;41.32;102112.09;5157319;27;20430;-75
2022/08/11 08:18:15;;;;;;;4.63;1.80;;;;;;;25.27;38.80;102104.13;5156308;27;20104;-76
2022/08/11 08:21:10;;;;;;;9.10;2.20;;;;;;;25.39;38.28;102102.34;5157430;27;20148;-76
2022/08/11 08:23:42;;;;;;;5.68;1.90;;;;;;;25.58;37.92;102109.13;5157474;27;20126;-76
2022/08/11 08:31:52;;;;;;;4.03;2.00;;;;;;;25.94;36.61;102098.38;5156641;27;20051;-76
2022/08/11 08:34:20;;;;;;;6.18;2.20;;;;;;;26.04;36.00;102099.38;5157276;27;20035;-76
2022/08/11 08:36:51;;;;;;;7.68;2.10;;;;;;;26.04;35.96;102096.69;5155590;27;20117;-76
2022/08/11 08:39:20;;;;;;;3.70;2.00;;;;;;;26.12;36.46;102094.28;5156779;27;20118;-76
2022/08/11 08:41:57;;;;;;;8.10;1.90;;;;;;;26.23;36.14;102096.13;5156832;27;20051;-76
2022/08/11 08:44:26;;;;;;;5.20;2.17;;;;;;;26.32;36.80;102097.28;5156458;27;20104;-76
2022/08/11 08:47:13;;;;;;;4.30;1.92;;;;;;;26.49;36.02;102094.09;5157044;27;20624;-76
2022/08/11 08:49:52;;;;;;;3.22;2.10;;;;;;;26.65;34.97;102096.44;5156740;27;20088;-76
2022/08/11 08:52:23;;;;;;;6.95;2.15;;;;;;;26.71;35.56;102097.81;5156661;27;20400;-77
2022/08/11 08:55:04;;;;;;;7.60;2.50;;;;;;;26.86;35.46;102106.56;5156797;27;20047;-76
2022/08/11 08:57:36;;;;;;;3.85;1.70;;;;;;;26.96;35.38;102104.00;5155997;27;20039;-76
2022/08/11 09:00:09;;;;;;;6.50;2.00;;;;;;;27.12;35.63;102106.28;5156716;27;20063;-76
2022/08/11 09:02:44;;;;;;;5.25;1.90;;;;;;;27.26;35.22;102106.03;5156645;27;20110;-76
2022/08/11 09:05:16;;;;;;;3.75;1.92;;;;;;;27.38;34.38;102101.44;5156469;27;20454;-76
2022/08/11 09:07:46;;;;;;;5.10;2.20;;;;;;;27.52;33.78;102094.06;5156465;27;20047;-75
2022/08/11 09:10:18;;;;;;;4.20;1.85;;;;;;;27.64;33.38;102105.72;5156361;27;20069;-76
2022/08/11 09:12:47;;;;;;;5.70;1.70;;;;;;;27.74;32.69;102103.97;5156713;27;20054;-76
2022/08/11 09:15:18;;;;;;;4.60;1.95;;;;;;;27.72;33.67;102090.56;5156394;27;20054;-76
2022/08/11 09:17:52;;;;;;;4.40;1.65;;;;;;;27.83;33.10;102092.34;5156013;27;20493;-77
2022/08/11 09:20:23;;;;;;;2.85;1.67;;;;;;;27.94;32.52;102094.16;5155955;27;20118;-76
2022/08/11 09:29:00;;;;;;;3.97;2.00;;;;;;;28.27;31.31;102099.53;5156448;27;20047;-77
2022/08/11 09:31:33;;;;;;;3.08;1.80;;;;;;;28.31;32.40;102091.00;5156420;27;20088;-76
2022/08/11 09:34:09;;;;;;;4.45;1.98;;;;;;;28.47;31.02;102090.53;5155188;27;20039;-76
2022/08/11 09:42:19;;;;;;;6.22;1.70;;;;;;;28.72;31.10;102084.81;5155691;27;20127;-75
2022/08/11 09:44:51;;;;;;;3.53;1.70;;;;;;;28.85;30.53;102084.59;5155891;27;20035;-76
2022/08/11 09:47:26;;;;;;;5.60;1.70;;;;;;;28.91;30.28;102086.78;5156053;27;20042;-76
2022/08/11 09:50:02;;;;;;;4.72;1.90;;;;;;;29.08;29.64;102077.97;5155860;27;20039;-76
2022/08/11 09:52:37;;;;;;;5.28;1.88;;;;;;;29.12;29.23;102073.97;5155961;27;20100;-76
2022/08/11 09:55:10;;;;;;;7.47;2.30;;;;;;;29.15;29.66;102072.00;5156265;27;20043;-76
2022/08/11 10:00:39;;;;;;;11.27;2.47;;;;;;;29.36;29.65;102064.59;5155569;27;20100;-76
2022/08/11 10:03:18;;;;;;;3.13;1.67;;;;;;;29.50;28.10;102066.06;5155783;27;20161;-75
2022/08/11 10:09:05;;;;;;;6.80;1.70;;;;;;;29.69;27.40;102062.47;5155618;27;20071;-76
2022/08/11 10:11:35;;;;;;;4.65;1.98;;;;;;;29.67;27.59;102055.47;5155523;27;20124;-76
2022/08/11 10:17:08;;;;;;;5.15;1.90;;;;;;;29.97;27.06;102050.91;5154632;27;20088;-76
2022/08/11 10:19:37;;;;;;;3.35;1.70;;;;;;;29.98;27.19;102047.19;5155795;27;20078;-76
2022/08/11 10:27:56;;;;;;;4.80;1.73;;;;;;;30.29;26.73;102036.09;5155314;27;20195;-76
2022/08/11 10:34:02;;;;;;;3.97;1.90;;;;;;;30.43;25.75;102049.19;5154881;27;20046;-76
2022/08/11 10:36:46;;;;;;;2.85;1.73;;;;;;;30.56;25.53;102045.31;5155049;27;20047;-76
2022/08/11 10:39:19;;;;;;;5.15;1.70;;;;;;;30.59;25.37;102034.16;5155166;27;20476;-76
2022/08/11 10:44:44;;;;;;;;;;;;;;;30.89;25.12;102040.31;5156547;27;20046;-76
2022/08/11 10:58:46;;;;;;;4.25;1.70;;;;;;;31.14;24.15;102028.69;5158790;27;20088;-75
2022/08/11 11:01:17;;;;;;;5.43;1.80;;;;;;;31.22;24.37;102030.66;5158150;27;20074;-76
2022/08/11 11:03:45;;;;;;;4.45;1.80;;;;;;;31.31;23.99;102019.84;5158639;27;20039;-76
2022/08/11 11:06:27;;;;;;;3.60;1.80;;;;;;;31.36;23.97;102026.53;5158547;27;20049;-76
2022/08/11 11:09:31;;;;;;;4.65;1.58;;;;;;;31.45;24.08;102016.56;5158246;27;20519;-76
2022/08/11 11:18:03;;;;;;;3.45;1.83;;;;;;;31.55;21.32;102002.84;5158018;27;20090;-76
2022/08/11 11:20:44;;;;;;;2.92;1.63;;;;;;;31.47;22.21;102000.94;5158551;27;20050;-76
2022/08/11 11:23:24;;;;;;;3.10;1.40;;;;;;;31.53;22.22;102000.28;5158333;27;20100;-76
2022/08/11 11:26:25;;;;;;;4.00;1.80;;;;;;;31.63;21.91;101993.91;5158120;27;20039;-76
2022/08/11 11:29:30;;;;;;;3.55;1.58;;;;;;;31.70;21.97;101995.88;5158048;27;20045;-75
2022/08/11 11:32:20;;;;;;;3.28;1.33;;;;;;;31.84;21.86;101993.59;5158031;27;20051;-76
2022/08/11 11:35:25;;;;;;;5.85;1.65;;;;;;;31.91;22.58;102000.09;5158394;27;20409;-76
2022/08/11 11:37:56;;;;;;;2.58;1.50;;;;;;;32.06;22.94;101995.75;5158024;27;20124;-76
2022/08/11 11:40:33;;;;;;;5.55;1.80;;;;;;;32.28;22.16;101990.78;5157673;27;20045;-76
2022/08/11 11:43:01;;;;;;;2.53;1.50;;;;;;;32.37;21.95;101999.88;5157908;27;20062;-76
2022/08/11 11:45:28;;;;;;;4.22;1.55;;;;;;;32.48;21.62;101998.72;5157665;27;20504;-76
2022/08/11 11:47:59;;;;;;;9.30;1.80;;;;;;;32.54;21.81;101998.09;5157799;27;20035;-76
2022/08/11 11:50:36;;;;;;;5.78;1.50;;;;;;;32.59;21.72;101994.88;5157394;27;20035;-76
2022/08/11 11:53:08;;;;;;;3.05;1.55;;;;;;;32.64;21.11;101987.03;5157631;27;20097;-76
2022/08/11 11:55:36;;;;;;;6.18;1.70;;;;;;;32.66;21.48;101993.19;5157616;27;20047;-76
2022/08/11 12:03:40;;;;;;;5.68;1.70;;;;;;;32.81;20.68;101977.03;5156490;27;20047;-75
2022/08/11 12:06:12;;;;;;;4.30;1.65;;;;;;;32.76;21.05;101982.97;5157308;27;20080;-76
2022/08/11 12:08:42;;;;;;;6.43;1.92;;;;;;;32.86;21.41;101976.53;5157336;27;20550;-75
2022/08/11 12:14:05;;;;;;;4.88;1.30;;;;;;;33.08;19.92;101975.91;5156608;27;20190;-76
2022/08/11 12:16:42;;;;;;;3.38;1.40;;;;;;;33.07;19.72;101970.63;5157212;27;20146;-76
2022/08/11 12:19:15;;;;;;;3.97;1.70;;;;;;;33.03;19.40;101958.31;5157541;27;20401;-76
2022/08/11 12:27:21;;;;;;;7.75;1.83;;;;;;;33.19;19.54;101954.75;5156984;27;20118;-76
2022/08/11 12:30:08;;;;;;;4.60;1.90;;;;;;;33.21;20.49;101944.50;5157093;27;20050;-76
2022/08/11 12:32:38;;;;;;;2.63;1.20;;;;;;;33.35;19.69;101946.56;5157095;27;20123;-76
2022/08/11 12:35:07;;;;;;;4.15;1.50;;;;;;;33.39;19.77;101941.63;5156671;27;20095;-76
2022/08/11 12:37:48;;;;;;;2.58;1.63;;;;;;;33.41;19.97;101940.44;5156483;27;20066;-76
2022/08/11 12:46:32;;;;;;;2.95;1.45;;;;;;;33.21;20.14;101926.22;5157211;27;20092;-76
2022/08/11 12:52:03;;;;;;;6.15;1.52;;;;;;;33.36;20.48;101925.59;5156265;27;20035;-76
2022/08/11 12:55:08;;;;;;;;;;;;;;;33.52;19.54;101917.38;5156853;27;20039;-75
2022/08/11 13:06:07;;;;;;;2.33;1.20;;;;;;;33.49;19.27;101905.94;5156230;27;20042;-76
2022/08/11 13:08:39;;;;;;;5.18;1.65;;;;;;;33.32;19.63;101902.31;5156453;27;20100;-76
2022/08/11 13:14:15;;;;;;;4.55;1.77;;;;;;;33.36;20.24;101890.91;5155724;27;20035;-76
2022/08/11 13:19:33;;;;;;;4.95;1.85;;;;;;;33.73;19.54;101897.66;5156184;27;20039;-75
2022/08/11 13:22:04;;;;;;;2.17;1.40;;;;;;;33.86;18.29;101885.31;5156205;27;20047;-76
2022/08/11 13:24:34;;;;;;;6.00;1.33;;;;;;;33.81;19.31;101876.81;5156304;27;20183;-76
2022/08/11 13:27:03;;;;;;;5.03;1.50;;;;;;;33.90;17.75;101882.09;5156072;27;20039;-76
2022/08/11 13:29:30;;;;;;;2.25;1.50;;;;;;;33.85;17.81;101889.09;5155391;27;20096;-76
2022/08/11 13:31:58;;;;;;;3.90;1.33;;;;;;;33.83;18.45;101875.59;5156685;27;20047;-76
2022/08/11 13:34:31;;;;;;;5.43;1.25;;;;;;;33.97;17.69;101875.94;5156285;27;20039;-76
2022/08/11 13:37:03;;;;;;;4.95;1.55;;;;;;;33.90;17.88;101873.06;5155763;27;20043;-77
2022/08/11 13:39:34;;;;;;;5.37;1.57;;;;;;;33.93;17.91;101877.31;5155831;27;20100;-76
2022/08/11 13:42:05;;;;;;;2.05;1.40;;;;;;;33.86;18.11;101867.09;5155749;27;20045;-76
2022/08/11 13:44:37;;;;;;;2.50;1.63;;;;;;;33.86;18.52;101868.91;5155309;27;20123;-76
2022/08/11 13:47:10;;;;;;;8.83;1.80;;;;;;;33.81;18.88;101868.63;5155988;27;20066;-76
2022/08/11 13:49:40;;;;;;;4.07;1.48;;;;;;;33.78;18.44;101858.88;5155791;27;20240;-76
2022/08/11 13:52:14;;;;;;;3.20;1.52;;;;;;;33.73;18.33;101862.13;5155813;27;20035;-75
2022/08/11 13:54:46;;;;;;;2.50;1.35;;;;;;;33.60;19.03;101856.38;5155373;27;20119;-75
2022/08/11 13:57:17;;;;;;;2.65;1.58;;;;;;;33.66;18.99;101855.66;5155599;27;20035;-76
2022/08/11 14:00:08;;;;;;;3.30;1.20;;;;;;;33.78;18.10;101858.88;5155787;27;20400;-76
2022/08/11 14:02:53;;;;;;;2.63;1.35;;;;;;;33.73;18.12;101856.66;5155175;27;20050;-76
2022/08/11 14:05:38;;;;;;;4.13;1.52;;;;;;;33.68;18.14;101844.56;5155596;27;20035;-76
2022/08/11 14:08:19;;;;;;;2.38;1.30;;;;;;;33.72;18.54;101859.56;5155518;27;20049;-76
2022/08/11 14:14:21;;;;;;;4.95;1.63;;;;;;;33.80;18.53;101839.56;5155270;27;20043;-76
2022/08/11 14:16:52;;;;;;;2.67;1.20;;;;;;;33.89;18.62;101844.84;5155118;27;20048;-76
2022/08/11 14:19:25;;;;;;;3.75;1.50;;;;;;;34.03;17.94;101843.28;5155674;27;20104;-76
2022/08/11 14:22:06;;;;;;;3.53;1.35;;;;;;;33.91;18.62;101842.78;5159162;27;20118;-76
2022/08/11 14:24:51;;;;;;;4.45;1.40;;;;;;;33.95;18.05;101835.06;5158971;27;20039;-76
2022/08/11 14:27:25;;;;;;;2.38;1.50;;;;;;;33.82;18.17;101826.56;5159271;27;20089;-76
2022/08/11 14:30:54;;;;;;;1.50;1.25;;;;;;;33.68;18.28;101830.91;5158937;27;20061;-75
2022/08/11 14:33:00;;;;;;;2.92;1.30;;;;;;;33.62;18.25;101832.47;5158746;27;20058;-75
2022/08/11 14:35:43;;;;;;;1.75;1.33;;;;;;;33.55;18.12;101836.91;5158432;27;20035;-76
2022/08/11 14:38:18;;;;;;;2.38;1.30;;;;;;;33.46;18.24;101827.91;5158995;27;20036;-76
2022/08/11 14:49:30;;;;;;;5.45;1.33;;;;;;;33.49;18.40;101824.78;5158767;27;20568;-77
2022/08/11 14:51:58;;;;;;;3.75;1.45;;;;;;;33.50;17.77;101821.03;5158981;27;20500;-75
2022/08/11 14:57:18;;;;;;;1.98;1.10;;;;;;;33.29;18.58;101819.69;5158478;27;20047;-76
2022/08/11 15:00:14;;;;;;;2.90;1.30;;;;;;;33.39;18.92;101819.53;5158273;27;20050;-76
2022/08/11 15:05:28;;;;;;;2.50;1.33;;;;;;;33.79;17.99;101816.81;5158687;27;20916;-76
2022/08/11 15:07:58;;;;;;;2.33;1.20;;;;;;;33.71;17.86;101811.41;5158268;27;20058;-76
2022/08/11 15:10:26;;;;;;;3.00;1.35;;;;;;;33.58;17.93;101811.97;5158266;27;20077;-76
2022/08/11 15:12:54;;;;;;;1.67;1.05;;;;;;;33.53;18.06;101801.56;5158100;27;20089;-75
2022/08/11 15:18:16;;;;;;;2.30;1.20;;;;;;;33.58;18.24;101795.56;5157406;27;20107;-76
2022/08/11 15:38:03;;;;;;;4.25;1.50;;;;;;;33.78;18.07;101776.84;5158060;27;20039;-77
2022/08/11 15:46:43;;;;;;;2.22;1.20;;;;;;;33.80;18.02;101771.22;5157628;27;20047;-75
2022/08/11 15:49:16;;;;;;;5.88;1.20;;;;;;;33.86;18.34;101776.88;5157784;27;20059;-75
2022/08/11 15:52:02;;;;;;;2.88;1.30;;;;;;;33.88;18.28;101761.09;5157505;27;20475;-75
2022/08/11 15:54:33;;;;;;;1.77;1.20;;;;;;;33.94;17.99;101766.91;5157803;27;20088;-75
2022/08/11 15:57:04;;;;;;;3.58;1.20;;;;;;;33.97;18.14;101761.91;5157084;27;20116;-75
2022/08/11 16:05:16;;;;;;;3.17;1.20;;;;;;;34.09;18.31;101769.72;5157524;27;20074;-76
2022/08/11 16:08:04;;;;;;;5.47;1.70;;;;;;;34.22;17.91;101757.16;5157538;27;20039;-75
2022/08/11 16:10:34;;;;;;;1.75;1.10;;;;;;;34.30;17.83;101758.97;5156920;27;20054;-75
2022/08/11 16:18:41;;;;;;;3.92;1.02;;;;;;;34.62;17.10;101756.19;5157271;27;20059;-75
2022/08/11 16:21:23;;;;;;;5.10;1.42;;;;;;;34.80;16.77;101751.22;5157261;27;20083;-75
2022/08/11 16:24:09;;;;;;;1.20;1.10;;;;;;;34.68;17.19;101750.00;5156927;27;20515;-75
2022/08/11 16:27:01;;;;;;;1.80;0.90;;;;;;;34.79;17.12;101746.81;5157079;27;20035;-76
2022/08/11 16:29:46;;;;;;;3.88;1.10;;;;;;;34.97;17.03;101740.16;5157068;27;20096;-75
2022/08/11 16:32:22;;;;;;;4.38;1.17;;;;;;;34.78;16.95;101750.56;5157230;27;20066;-76
2022/08/11 16:40:41;;;;;;;2.85;1.15;;;;;;;35.14;16.91;101738.09;5156539;27;20051;-75
2022/08/11 16:48:53;;;;;;;5.63;1.10;;;;;;;34.93;17.34;101731.47;5156912;27;20066;-76
2022/08/11 16:51:22;;;;;;;3.67;1.30;;;;;;;34.87;17.35;101743.09;5156583;27;20119;-75
2022/08/11 16:53:49;;;;;;;3.42;1.30;;;;;;;34.82;17.36;101735.47;5156458;27;20038;-76
2022/08/11 16:56:47;;;;;;;1.95;1.10;;;;;;;34.99;17.20;101727.13;5156636;27;20051;-76
2022/08/11 16:59:38;;;;;;;2.97;1.27;;;;;;;35.04;17.07;101727.41;5156976;27;20059;-76
2022/08/11 17:13:55;;;;;;;2.13;1.17;;;;;;;35.14;16.79;101725.22;5156527;27;20559;-76
2022/08/11 17:16:33;;;;;;;3.10;1.23;;;;;;;35.12;16.45;101718.25;5156149;27;20066;-77
2022/08/11 17:19:07;;;;;;;1.65;1.25;;;;;;;34.99;16.84;101724.38;5156317;27;20126;-76
2022/08/11 17:24:43;;;;;;;2.47;1.20;;;;;;;34.87;16.93;101721.19;5155615;27;20576;-75
2022/08/11 17:27:15;;;;;;;6.27;1.40;;;;;;;34.93;16.71;101730.59;5156125;27;20118;-76
2022/08/11 17:29:55;;;;;;;2.38;1.20;;;;;;;34.79;17.03;101722.16;5156547;27;20044;-76
2022/08/11 17:38:14;;;;;;;1.83;1.00;;;;;;;34.74;16.77;101723.75;5155746;27;20038;-76
2022/08/11 17:49:25;;;;;;;2.45;1.10;;;;;;;34.15;17.35;101722.47;5156052;27;20519;-76
2022/08/11 18:00:18;;;;;;;2.17;1.15;;;;;;;33.60;17.98;101720.56;5155641;27;20287;-75
2022/08/11 18:05:39;;;;;;;2.47;1.20;;;;;;;33.42;18.41;101719.97;5155609;27;20043;-75
